createdAt,value
2022-12-03T00:05:14.889Z,8.3
2022-12-03T00:12:47.200Z,6.8
2022-12-03T00:20:19.483Z,7.1
2022-12-03T00:27:51.750Z,8.5
2022-12-03T00:35:24.021Z,6.6
2022-12-03T00:42:56.286Z,10.9
2022-12-03T00:50:28.594Z,5.0
2022-12-03T00:58:00.866Z,4.8
2022-12-03T01:05:33.189Z,5.5
2022-12-03T01:13:05.503Z,6.0
2022-12-03T01:20:37.811Z,5.7
2022-12-03T01:28:10.118Z,9.1
2022-12-03T01:35:42.430Z,5.8
2022-12-03T01:43:14.707Z,7.7
2022-12-03T01:50:46.980Z,5.7
2022-12-03T01:58:19.250Z,8.2
2022-12-03T02:05:51.566Z,4.8
2022-12-03T02:13:23.839Z,4.4
2022-12-03T02:20:56.131Z,4.7
2022-12-03T02:28:28.410Z,4.6
2022-12-03T02:36:03.791Z,4.6
2022-12-03T02:43:36.521Z,6.0
2022-12-03T02:51:08.791Z,4.4
2022-12-03T02:58:41.097Z,5.9
2022-12-03T03:06:13.368Z,4.5
2022-12-03T03:13:45.681Z,5.6
2022-12-03T03:21:17.961Z,6.0
2022-12-03T03:28:50.260Z,6.5
2022-12-03T03:36:22.574Z,5.8
2022-12-03T03:43:54.894Z,5.5
2022-12-03T03:51:27.155Z,4.2
2022-12-03T03:58:59.430Z,6.1
2022-12-03T04:06:31.694Z,6.0
2022-12-03T04:14:04.002Z,6.3
2022-12-03T04:21:36.287Z,5.5
2022-12-03T04:29:08.550Z,9.0
2022-12-03T04:36:40.876Z,7.6
2022-12-03T04:44:13.240Z,6.0
2022-12-03T04:51:45.511Z,7.3
2022-12-03T04:59:17.777Z,6.7
2022-12-03T05:06:50.089Z,6.6
2022-12-03T05:14:22.372Z,6.3
2022-12-03T05:21:54.689Z,7.0
2022-12-03T05:29:26.968Z,6.5
2022-12-03T05:36:59.284Z,6.7
2022-12-03T05:44:31.601Z,8.3
2022-12-03T05:52:03.879Z,7.0
2022-12-03T05:59:36.180Z,7.0
2022-12-03T06:07:13.610Z,7.0
2022-12-03T06:14:46.362Z,6.0
2022-12-03T06:22:18.905Z,6.0
2022-12-03T06:29:51.225Z,7.1
2022-12-03T06:32:50.762Z,10.3
2022-12-03T06:33:38.110Z,14.6
2022-12-03T06:34:25.382Z,18.2
2022-12-03T06:35:12.670Z,17.1
2022-12-03T06:35:59.962Z,23.5
2022-12-03T06:36:47.261Z,20.8
2022-12-03T06:37:34.580Z,19.3
2022-12-03T06:38:21.905Z,20.3
2022-12-03T06:39:09.180Z,22.6
2022-12-03T06:39:56.501Z,27.8
2022-12-03T06:40:43.803Z,22.5
2022-12-03T06:41:31.167Z,21.1
2022-12-03T06:42:18.471Z,22.4
2022-12-03T06:43:05.804Z,23.0
2022-12-03T06:43:53.127Z,27.4
2022-12-03T06:44:40.434Z,19.9
2022-12-03T06:45:27.707Z,20.3
2022-12-03T06:46:15.344Z,22.5
2022-12-03T06:47:02.739Z,19.3
2022-12-03T06:47:50.138Z,19.9
2022-12-03T06:48:37.466Z,18.2
2022-12-03T06:49:24.749Z,15.4
2022-12-03T06:50:12.052Z,15.5
2022-12-03T06:50:59.373Z,18.5
2022-12-03T06:51:46.681Z,24.5
2022-12-03T06:52:34.023Z,18.8
2022-12-03T06:53:21.442Z,20.7
2022-12-03T06:54:08.753Z,19.7
2022-12-03T06:54:56.285Z,27.1
2022-12-03T06:55:44.023Z,24.9
2022-12-03T06:56:36.751Z,32.7
2022-12-03T06:57:26.447Z,26.0
2022-12-03T06:58:13.880Z,22.7
2022-12-03T06:59:01.218Z,17.8
2022-12-03T06:59:48.499Z,20.6
2022-12-03T07:00:35.929Z,17.8
2022-12-03T07:01:23.327Z,16.4
2022-12-03T07:02:10.735Z,12.9
2022-12-03T07:02:58.096Z,13.8
2022-12-03T07:03:45.409Z,20.9
2022-12-03T07:04:32.713Z,12.8
2022-12-03T07:05:20.073Z,13.4
2022-12-03T07:06:07.342Z,13.5
2022-12-03T07:06:54.650Z,10.6
2022-12-03T07:07:42.129Z,11.6
2022-12-03T07:08:29.460Z,12.8
2022-12-03T07:09:16.768Z,12.1
2022-12-03T07:10:04.195Z,18.6
2022-12-03T07:10:51.501Z,10.7
2022-12-03T07:11:38.810Z,18.2
2022-12-03T07:12:27.426Z,14.6
2022-12-03T07:13:14.809Z,13.2
2022-12-03T07:14:05.562Z,11.2
2022-12-03T07:14:53.478Z,10.3
2022-12-03T07:15:41.053Z,11.6
2022-12-03T07:16:28.637Z,12.0
2022-12-03T07:17:15.953Z,9.7
2022-12-03T07:18:03.269Z,15.8
2022-12-03T07:18:50.642Z,13.3
2022-12-03T07:19:37.957Z,10.4
2022-12-03T07:20:25.243Z,10.3
2022-12-03T07:21:12.654Z,12.9
2022-12-03T07:21:59.936Z,12.7
2022-12-03T07:22:47.212Z,16.8
2022-12-03T07:23:34.628Z,13.2
2022-12-03T07:24:21.967Z,12.5
2022-12-03T07:25:09.287Z,12.8
2022-12-03T07:25:56.652Z,9.7
2022-12-03T07:26:43.957Z,9.5
2022-12-03T07:27:31.261Z,11.8
2022-12-03T07:28:18.673Z,10.7
2022-12-03T07:29:05.989Z,12.0
2022-12-03T07:29:53.267Z,10.2
2022-12-03T07:30:40.726Z,12.7
2022-12-03T07:31:28.128Z,12.9
2022-12-03T07:32:15.471Z,17.0
2022-12-03T07:33:02.873Z,13.0
2022-12-03T07:33:50.155Z,11.9
2022-12-03T07:34:37.463Z,11.4
2022-12-03T07:35:24.828Z,12.5
2022-12-03T07:36:12.095Z,7.7
2022-12-03T07:36:59.358Z,7.7
2022-12-03T07:37:46.794Z,9.1
2022-12-03T07:38:34.068Z,11.8
2022-12-03T07:39:21.373Z,22.9
2022-12-03T07:40:08.763Z,9.9
2022-12-03T07:40:56.058Z,11.0
2022-12-03T07:41:43.329Z,6.2
2022-12-03T07:42:31.312Z,16.9
2022-12-03T07:43:18.763Z,9.9
2022-12-03T07:44:12.380Z,10.7
2022-12-03T07:45:01.486Z,9.0
2022-12-03T07:45:48.891Z,12.1
2022-12-03T07:46:36.235Z,11.6
2022-12-03T07:47:23.530Z,14.2
2022-12-03T07:48:10.988Z,7.9
2022-12-03T07:48:58.251Z,9.6
2022-12-03T07:49:45.549Z,11.0
2022-12-03T07:50:33.033Z,11.9
2022-12-03T07:51:20.310Z,9.8
2022-12-03T07:52:07.575Z,11.7
2022-12-03T07:52:55.027Z,9.3
2022-12-03T07:53:42.306Z,22.0
2022-12-03T07:54:29.608Z,20.3
2022-12-03T07:55:16.998Z,23.2
2022-12-03T07:56:04.304Z,13.0
2022-12-03T07:56:54.341Z,11.7
2022-12-03T07:57:43.968Z,25.1
2022-12-03T07:58:31.348Z,17.0
2022-12-03T07:59:18.636Z,17.7
2022-12-03T08:00:05.931Z,14.0
2022-12-03T08:00:53.397Z,15.5
2022-12-03T08:01:40.779Z,13.9
2022-12-03T08:02:28.192Z,13.5
2022-12-03T08:03:15.573Z,12.2
2022-12-03T08:04:02.849Z,15.7
2022-12-03T08:04:50.157Z,11.6
2022-12-03T08:05:37.575Z,13.6
2022-12-03T08:06:24.893Z,12.1
2022-12-03T08:07:12.198Z,12.0
2022-12-03T08:07:59.693Z,11.3
2022-12-03T08:08:47.216Z,17.2
2022-12-03T08:09:34.494Z,11.2
2022-12-03T08:10:21.920Z,11.5
2022-12-03T08:11:09.290Z,11.0
2022-12-03T08:11:56.562Z,12.1
2022-12-03T08:12:44.000Z,14.9
2022-12-03T08:13:31.310Z,12.9
2022-12-03T08:14:18.570Z,16.4
2022-12-03T08:15:05.976Z,16.4
2022-12-03T08:15:53.310Z,19.8
2022-12-03T08:16:40.746Z,15.5
2022-12-03T08:17:28.113Z,22.0
2022-12-03T08:18:15.414Z,17.5
2022-12-03T08:19:02.688Z,18.2
2022-12-03T08:19:50.124Z,19.4
2022-12-03T08:20:37.457Z,17.8
2022-12-03T08:21:24.777Z,17.9
2022-12-03T08:22:12.162Z,17.8
2022-12-03T08:22:59.465Z,18.7
2022-12-03T08:23:46.767Z,20.7
2022-12-03T08:24:34.167Z,16.4
2022-12-03T08:25:21.487Z,21.3
2022-12-03T08:26:08.805Z,16.4
2022-12-03T08:26:56.208Z,21.2
2022-12-03T08:27:43.487Z,15.9
2022-12-03T08:28:30.774Z,20.4
2022-12-03T08:29:18.166Z,13.3
2022-12-03T08:30:05.504Z,14.5
2022-12-03T08:30:52.815Z,17.3
2022-12-03T08:31:40.362Z,18.2
2022-12-03T08:32:27.677Z,15.6
2022-12-03T08:33:14.978Z,24.1
2022-12-03T08:34:02.385Z,21.4
2022-12-03T08:34:49.688Z,14.7
2022-12-03T08:35:37.011Z,17.2
2022-12-03T08:36:24.410Z,22.6
2022-12-03T08:37:11.701Z,15.6
2022-12-03T08:37:59.001Z,17.6
2022-12-03T08:38:46.370Z,12.3
2022-12-03T08:39:33.772Z,15.6
2022-12-03T08:40:21.153Z,13.1
2022-12-03T08:41:08.566Z,13.4
2022-12-03T08:41:55.896Z,11.9
2022-12-03T08:42:43.243Z,16.0
2022-12-03T08:43:30.617Z,14.4
2022-12-03T08:44:17.900Z,12.4
2022-12-03T08:45:05.200Z,10.8
2022-12-03T08:45:52.599Z,11.5
2022-12-03T08:46:39.932Z,11.7
2022-12-03T08:47:27.207Z,14.6
2022-12-03T08:48:14.620Z,10.5
2022-12-03T08:49:01.888Z,9.5
2022-12-03T08:49:49.192Z,14.0
2022-12-03T08:50:36.616Z,9.7
2022-12-03T08:51:23.888Z,11.4
2022-12-03T08:52:11.233Z,14.0
2022-12-03T08:52:58.583Z,12.8
2022-12-03T08:53:45.880Z,10.3
2022-12-03T08:54:33.197Z,9.7
2022-12-03T08:55:20.609Z,10.4
2022-12-03T08:56:07.914Z,8.8
2022-12-03T08:56:55.220Z,10.9
2022-12-03T08:57:42.618Z,10.6
2022-12-03T08:58:29.923Z,10.2
2022-12-03T08:59:17.245Z,13.6
2022-12-03T09:00:04.658Z,8.3
2022-12-03T09:00:52.051Z,10.4
2022-12-03T09:01:39.448Z,7.9
2022-12-03T09:02:26.800Z,14.1
2022-12-03T09:03:14.075Z,13.8
2022-12-03T09:04:01.415Z,9.5
2022-12-03T09:04:48.804Z,26.0
2022-12-03T09:05:36.108Z,13.9
2022-12-03T09:06:23.409Z,17.0
2022-12-03T09:07:10.806Z,22.6
2022-12-03T09:07:58.168Z,23.4
2022-12-03T09:08:45.581Z,20.4
2022-12-03T09:09:32.960Z,29.2
2022-12-03T09:10:20.235Z,27.5
2022-12-03T09:11:07.545Z,18.4
2022-12-03T09:11:54.969Z,28.5
2022-12-03T09:12:42.282Z,11.6
2022-12-03T09:13:29.576Z,20.6
2022-12-03T09:14:18.883Z,12.3
2022-12-03T09:15:53.683Z,14.3
2022-12-03T09:16:41.128Z,11.2
2022-12-03T09:17:28.419Z,11.6
2022-12-03T09:18:15.711Z,15.1
2022-12-03T09:19:02.974Z,18.1
2022-12-03T09:19:50.272Z,20.3
2022-12-03T09:20:37.580Z,15.2
2022-12-03T09:21:24.857Z,16.2
2022-12-03T09:22:12.157Z,34.9
2022-12-03T09:22:59.472Z,25.5
2022-12-03T09:23:46.755Z,27.2
2022-12-03T09:24:34.059Z,27.0
2022-12-03T09:25:21.350Z,30.5
2022-12-03T09:26:08.620Z,20.2
2022-12-03T09:26:55.930Z,33.9
2022-12-03T09:27:43.210Z,31.3
2022-12-03T09:28:30.517Z,39.0
2022-12-03T09:29:17.795Z,42.1
2022-12-03T09:30:05.138Z,34.8
2022-12-03T09:30:52.453Z,41.9
2022-12-03T09:31:39.803Z,35.9
2022-12-03T09:32:27.201Z,29.1
2022-12-03T09:33:14.570Z,32.2
2022-12-03T09:34:01.844Z,29.6
2022-12-03T09:34:49.166Z,30.7
2022-12-03T09:35:36.439Z,27.0
2022-12-03T09:36:23.751Z,26.1
2022-12-03T09:37:11.061Z,23.6
2022-12-03T09:37:58.352Z,27.3
2022-12-03T09:38:47.834Z,35.4
2022-12-03T09:39:35.603Z,21.0
2022-12-03T09:40:22.924Z,22.4
2022-12-03T09:41:10.290Z,19.0
2022-12-03T09:41:57.601Z,17.1
2022-12-03T09:42:44.951Z,20.5
2022-12-03T09:44:02.875Z,16.9
2022-12-03T09:44:29.526Z,13.4
2022-12-03T09:45:16.941Z,19.4
2022-12-03T09:46:04.278Z,12.8
2022-12-03T09:46:51.607Z,17.0
2022-12-03T09:47:39.003Z,13.5
2022-12-03T09:48:26.273Z,19.7
2022-12-03T09:49:16.004Z,11.7
2022-12-03T09:50:03.638Z,16.7
2022-12-03T09:50:51.032Z,17.3
2022-12-03T09:51:38.311Z,12.8
2022-12-03T09:52:25.583Z,15.5
2022-12-03T09:53:13.334Z,13.7
2022-12-03T09:54:00.716Z,10.8
2022-12-03T09:54:48.028Z,14.8
2022-12-03T09:55:35.303Z,15.3
2022-12-03T09:56:22.577Z,11.8
2022-12-03T09:57:09.839Z,9.3
2022-12-03T09:57:57.160Z,18.3
2022-12-03T09:58:44.465Z,9.2
2022-12-03T09:59:31.793Z,13.2
2022-12-03T10:00:19.098Z,12.2
2022-12-03T10:01:06.450Z,13.1
2022-12-03T10:01:53.857Z,8.6
2022-12-03T10:02:41.219Z,20.7
2022-12-03T10:03:30.153Z,17.5
2022-12-03T10:04:17.660Z,12.4
2022-12-03T10:05:05.081Z,11.7
2022-12-03T10:05:52.392Z,14.7
2022-12-03T10:06:45.336Z,9.7
2022-12-03T10:07:33.308Z,13.4
2022-12-03T10:08:20.737Z,14.4
2022-12-03T10:09:08.175Z,10.2
2022-12-03T10:09:55.670Z,11.6
2022-12-03T10:10:43.234Z,12.4
2022-12-03T10:11:30.575Z,13.0
2022-12-03T10:12:17.835Z,14.9
2022-12-03T10:13:05.139Z,9.6
2022-12-03T10:13:52.458Z,11.1
2022-12-03T10:14:39.775Z,9.3
2022-12-03T10:15:27.059Z,9.7
2022-12-03T10:16:14.390Z,13.4
2022-12-03T10:17:01.769Z,10.3
2022-12-03T10:17:49.118Z,15.0
2022-12-03T10:18:41.445Z,9.5
2022-12-03T10:19:29.096Z,10.5
2022-12-03T10:20:16.432Z,11.4
2022-12-03T10:21:03.749Z,15.7
2022-12-03T10:21:51.044Z,10.2
2022-12-03T10:22:38.464Z,9.2
2022-12-03T10:23:25.737Z,17.9
2022-12-03T10:24:13.042Z,9.0
2022-12-03T10:25:00.427Z,11.7
2022-12-03T10:25:47.723Z,16.4
2022-12-03T10:26:35.008Z,8.5
2022-12-03T10:27:22.434Z,10.0
2022-12-03T10:28:09.749Z,10.2
2022-12-03T10:28:57.084Z,13.0
2022-12-03T10:29:44.485Z,13.2
2022-12-03T10:30:31.831Z,10.3
2022-12-03T10:31:19.248Z,10.7
2022-12-03T10:32:06.656Z,14.4
2022-12-03T10:32:53.931Z,9.1
2022-12-03T10:33:41.232Z,9.5
2022-12-03T10:34:28.704Z,13.0
2022-12-03T10:35:15.981Z,11.4
2022-12-03T10:36:03.299Z,14.3
2022-12-03T10:36:50.688Z,17.0
2022-12-03T10:37:37.962Z,10.0
2022-12-03T10:38:25.260Z,11.8
2022-12-03T10:39:12.685Z,12.7
2022-12-03T10:39:59.968Z,11.3
2022-12-03T10:40:47.278Z,7.7
2022-12-03T10:41:34.668Z,14.9
2022-12-03T10:42:21.983Z,14.6
2022-12-03T10:43:09.299Z,15.0
2022-12-03T10:43:56.727Z,25.1
2022-12-03T10:44:44.017Z,15.3
2022-12-03T10:45:31.324Z,13.3
2022-12-03T10:46:18.867Z,13.8
2022-12-03T10:47:06.302Z,18.9
2022-12-03T10:47:53.867Z,17.5
2022-12-03T10:48:41.232Z,24.2
2022-12-03T10:49:28.543Z,16.7
2022-12-03T10:50:15.866Z,14.3
2022-12-03T10:51:03.299Z,9.9
2022-12-03T10:51:50.567Z,15.3
2022-12-03T10:52:38.279Z,16.0
2022-12-03T10:53:25.579Z,9.4
2022-12-03T10:54:12.997Z,13.3
2022-12-03T10:55:00.275Z,14.1
2022-12-03T10:55:47.598Z,10.2
2022-12-03T10:56:34.902Z,10.7
2022-12-03T10:57:22.208Z,10.6
2022-12-03T10:58:09.527Z,9.4
2022-12-03T10:58:56.844Z,16.7
2022-12-03T10:59:44.158Z,17.6
2022-12-03T11:00:31.481Z,17.7
2022-12-03T11:01:18.824Z,14.6
2022-12-03T11:02:06.171Z,10.9
2022-12-03T11:02:56.965Z,12.5
2022-12-03T11:03:44.722Z,10.3
2022-12-03T11:04:32.108Z,8.8
2022-12-03T11:05:19.388Z,20.4
2022-12-03T11:06:06.664Z,13.0
2022-12-03T11:06:54.108Z,14.8
2022-12-03T11:07:41.474Z,23.9
2022-12-03T11:08:28.839Z,13.4
2022-12-03T11:09:16.244Z,11.0
2022-12-03T11:10:03.552Z,18.0
2022-12-03T11:10:50.869Z,18.6
2022-12-03T11:11:38.228Z,23.5
2022-12-03T11:12:25.924Z,17.2
2022-12-03T11:13:13.203Z,15.7
2022-12-03T11:14:01.594Z,16.3
2022-12-03T11:14:49.184Z,14.6
2022-12-03T11:15:36.737Z,22.7
2022-12-03T11:16:24.130Z,13.6
2022-12-03T11:17:11.474Z,14.0
2022-12-03T11:17:58.792Z,10.1
2022-12-03T11:18:46.120Z,24.4
2022-12-03T11:19:33.444Z,15.3
2022-12-03T11:20:22.836Z,14.7
2022-12-03T11:21:10.470Z,13.0
2022-12-03T11:21:57.897Z,11.6
2022-12-03T11:22:45.170Z,13.8
2022-12-03T11:23:32.500Z,19.5
2022-12-03T11:24:19.969Z,30.8
2022-12-03T11:25:07.293Z,11.9
2022-12-03T11:25:54.580Z,8.8
2022-12-03T11:26:42.003Z,9.5
2022-12-03T11:27:29.306Z,13.4
2022-12-03T11:28:16.626Z,22.8
2022-12-03T11:29:04.023Z,12.4
2022-12-03T11:29:51.333Z,13.2
2022-12-03T11:30:38.615Z,13.0
2022-12-03T11:31:26.162Z,8.7
2022-12-03T11:32:13.495Z,9.4
2022-12-03T11:33:00.799Z,10.5
2022-12-03T11:33:48.210Z,13.6
2022-12-03T11:34:35.474Z,17.8
2022-12-03T11:35:22.747Z,11.9
2022-12-03T11:42:55.026Z,10.1
2022-12-03T11:50:27.305Z,14.4
2022-12-03T11:57:59.652Z,15.0
2022-12-03T12:05:31.961Z,14.2
2022-12-03T12:13:04.242Z,11.9
2022-12-03T12:20:36.509Z,15.2
2022-12-03T12:28:08.796Z,12.0
2022-12-03T12:35:41.110Z,14.4
2022-12-03T12:43:16.568Z,17.4
2022-12-03T12:50:52.671Z,10.8
2022-12-03T12:58:24.995Z,15.3
2022-12-03T13:05:57.281Z,15.8
2022-12-03T13:13:29.602Z,11.6
2022-12-03T13:21:01.912Z,13.8
2022-12-03T13:28:34.206Z,11.1
2022-12-03T13:36:06.570Z,12.6
2022-12-03T13:43:44.367Z,13.5
2022-12-03T13:51:17.020Z,9.4
2022-12-03T13:58:49.298Z,10.4
2022-12-03T14:06:21.607Z,14.0
2022-12-03T14:13:53.883Z,10.2
2022-12-03T14:21:26.168Z,10.4
2022-12-03T14:28:58.481Z,8.4
2022-12-03T14:36:30.759Z,8.9
2022-12-03T14:44:03.072Z,8.9
2022-12-03T14:51:35.340Z,9.4
2022-12-03T14:59:07.625Z,7.3
2022-12-03T15:06:39.944Z,7.4
2022-12-03T15:14:12.278Z,8.5
2022-12-03T15:21:44.736Z,7.7
2022-12-03T15:29:17.009Z,8.0
2022-12-03T15:36:49.295Z,7.9
2022-12-03T15:44:21.571Z,6.9
2022-12-03T15:51:53.872Z,9.0
2022-12-03T15:59:26.192Z,7.6
2022-12-03T16:06:58.509Z,8.9
2022-12-03T16:14:30.782Z,7.8
2022-12-03T16:22:03.109Z,8.2
2022-12-03T16:29:35.423Z,8.2
2022-12-03T16:37:07.691Z,7.3
2022-12-03T16:44:39.966Z,6.1
2022-12-03T16:52:12.260Z,7.5
2022-12-03T16:59:44.530Z,7.2
2022-12-03T17:07:16.795Z,10.1
2022-12-03T17:14:49.075Z,10.2
2022-12-03T17:22:21.344Z,9.5
2022-12-03T17:29:53.894Z,8.7
2022-12-03T17:37:26.317Z,10.7
2022-12-03T17:44:58.632Z,10.2
2022-12-03T17:52:30.907Z,10.4
2022-12-03T18:00:03.172Z,12.9
2022-12-03T18:07:35.527Z,13.9
2022-12-03T18:15:07.844Z,12.7
2022-12-03T18:22:40.114Z,11.3
2022-12-03T18:30:12.392Z,14.6
2022-12-03T18:37:44.677Z,10.0
2022-12-03T18:45:17.008Z,10.3
2022-12-03T18:52:49.336Z,12.4
2022-12-03T19:00:21.647Z,11.9
2022-12-03T19:07:53.952Z,11.0
2022-12-03T19:15:26.255Z,12.1
2022-12-03T19:22:58.571Z,9.8
2022-12-03T19:30:30.931Z,13.7
2022-12-03T19:38:03.227Z,11.8
2022-12-03T19:45:35.540Z,13.8
2022-12-03T19:53:07.873Z,12.4
2022-12-03T20:00:40.156Z,13.6
2022-12-03T20:08:12.483Z,13.4
2022-12-03T20:15:44.849Z,16.1
2022-12-03T20:23:17.105Z,15.2
2022-12-03T20:30:49.376Z,14.0
2022-12-03T20:38:21.681Z,11.1
2022-12-03T20:45:58.089Z,13.4
2022-12-03T20:53:33.485Z,14.0
2022-12-03T21:01:05.859Z,12.0
2022-12-03T21:08:42.425Z,14.7
2022-12-03T21:16:15.237Z,16.0
2022-12-03T21:23:47.584Z,14.1
2022-12-03T21:31:19.946Z,16.1
2022-12-03T21:38:52.307Z,11.3
2022-12-03T21:47:11.156Z,13.7
2022-12-03T21:54:06.928Z,14.7
2022-12-03T22:01:44.049Z,14.8
2022-12-03T22:09:23.254Z,13.8
2022-12-03T22:16:58.701Z,17.2
2022-12-03T22:24:31.046Z,15.8
2022-12-03T22:32:03.381Z,18.5
2022-12-03T22:39:35.663Z,18.4
2022-12-03T22:47:07.954Z,15.5
2022-12-03T22:54:40.237Z,18.3
2022-12-03T23:02:12.615Z,15.0
2022-12-03T23:09:44.982Z,21.2
2022-12-03T23:17:17.272Z,16.7
2022-12-03T23:24:49.555Z,19.6
2022-12-03T23:32:21.869Z,20.5
2022-12-03T23:39:54.435Z,20.0
2022-12-03T23:47:26.883Z,18.9
2022-12-03T23:54:59.226Z,16.3
